Converse, Texas
Current Conditions -  °F | °C
As of 10:58 AM on Monday 24 Nov 2014 (Local Time) from KRND Reporting Station
Clear Clear  
Wind Chill: 60°   Ceiling: Unl
Heat Index: 60°   Visibility: 10mi
Dew Point: 30°   Wind: 8mph
Humidity: 33%   Direction: 350°N
Pressure: 30.11"   Gusts: NA
Location:  29.52°N, 98.31°W
Report Text: KRND 241658Z AUTO 35007KT 10SM CLR 16/M01 A3011 RMK AO2 SLP193 T01561009
Loading
Personal Weather Stations






























Interactive Weather Map New forecast layout! Learn more

10-Day Weather Forecast

Advertisements
Track Severe Weather on mobile